createdAt,value
2023-01-07T00:01:45.906Z,93.00
2023-01-07T00:04:17.099Z,93.20
2023-01-07T00:06:48.527Z,93.30
2023-01-07T00:09:18.015Z,92.80
2023-01-07T00:11:47.510Z,93.10
2023-01-07T00:14:16.901Z,93.20
2023-01-07T00:16:46.022Z,93.10
2023-01-07T00:19:17.392Z,92.90
2023-01-07T00:21:46.294Z,92.80
2023-01-07T00:24:16.865Z,92.70
2023-01-07T00:26:47.201Z,92.70
2023-01-07T00:29:16.039Z,92.80
2023-01-07T00:31:44.871Z,92.90
2023-01-07T00:34:14.093Z,92.80
2023-01-07T00:36:46.416Z,92.80
2023-01-07T00:39:18.349Z,92.40
2023-01-07T00:42:07.299Z,92.60
2023-01-07T00:44:38.280Z,92.70
2023-01-07T00:47:07.548Z,93.00
2023-01-07T00:49:36.418Z,93.10
2023-01-07T00:52:05.311Z,93.20
2023-01-07T00:54:34.046Z,93.10
2023-01-07T00:57:02.802Z,93.10
2023-01-07T00:59:31.668Z,93.20
2023-01-07T01:02:00.627Z,93.20
2023-01-07T01:04:29.540Z,93.20
2023-01-07T01:06:58.371Z,93.10
2023-01-07T01:09:27.510Z,93.00
2023-01-07T01:11:56.444Z,92.80
2023-01-07T01:14:25.227Z,92.50
2023-01-07T01:16:54.198Z,92.60
2023-01-07T01:19:23.081Z,92.70
2023-01-07T01:21:51.875Z,92.50
2023-01-07T01:24:20.768Z,92.60
2023-01-07T01:26:49.556Z,92.70
2023-01-07T01:29:18.533Z,92.70
2023-01-07T01:31:47.422Z,92.80
2023-01-07T01:34:16.349Z,92.80
2023-01-07T01:36:45.255Z,92.70
2023-01-07T01:39:14.596Z,92.50
2023-01-07T01:41:43.299Z,92.30
2023-01-07T01:44:36.418Z,92.20
2023-01-07T01:47:17.169Z,92.20
2023-01-07T01:49:52.835Z,92.30
2023-01-07T01:52:26.336Z,92.20
2023-01-07T01:54:59.246Z,92.40
2023-01-07T01:57:32.762Z,92.30
2023-01-07T02:00:01.911Z,91.60
2023-01-07T02:02:36.095Z,92.10
2023-01-07T02:05:06.001Z,91.80
2023-01-07T02:07:34.899Z,91.30
2023-01-07T02:10:16.945Z,91.30
2023-01-07T02:13:25.927Z,91.30
2023-01-07T02:16:06.673Z,91.80
2023-01-07T02:18:40.461Z,92.00
2023-01-07T02:21:33.320Z,91.40
2023-01-07T02:24:07.470Z,91.10
2023-01-07T02:27:15.436Z,91.10
2023-01-07T02:30:04.612Z,91.40
2023-01-07T02:32:37.498Z,90.20
2023-01-07T02:35:09.280Z,89.60
2023-01-07T02:38:06.584Z,89.80
2023-01-07T02:40:56.484Z,90.30
2023-01-07T02:43:27.211Z,89.20
2023-01-07T02:46:08.000Z,88.70
2023-01-07T02:48:38.009Z,87.90
2023-01-07T02:51:06.923Z,89.50
2023-01-07T02:53:36.204Z,87.50
2023-01-07T02:56:33.353Z,87.60
2023-01-07T02:59:23.112Z,88.60
2023-01-07T03:01:56.565Z,87.10
2023-01-07T03:04:54.297Z,89.30
2023-01-07T03:07:47.429Z,86.80
2023-01-07T03:10:24.018Z,86.50
2023-01-07T03:13:00.543Z,86.00
2023-01-07T03:15:51.092Z,88.60
2023-01-07T03:18:26.070Z,86.30
2023-01-07T03:21:00.352Z,85.70
2023-01-07T03:23:31.695Z,85.70
2023-01-07T03:26:06.408Z,85.70
2023-01-07T03:28:38.584Z,86.10
2023-01-07T03:31:10.325Z,87.30
2023-01-07T03:33:44.861Z,87.30
2023-01-07T03:36:17.382Z,87.20
2023-01-07T03:38:47.763Z,87.50
2023-01-07T03:41:36.391Z,85.90
2023-01-07T03:44:05.212Z,87.50
2023-01-07T03:46:35.709Z,85.30
2023-01-07T03:49:05.036Z,85.40
2023-01-07T03:51:33.721Z,84.50
2023-01-07T03:54:02.591Z,84.80
2023-01-07T03:56:31.272Z,84.70
2023-01-07T03:59:00.120Z,84.00
2023-01-07T04:01:29.261Z,84.70
2023-01-07T04:03:58.287Z,84.20
2023-01-07T04:06:27.113Z,84.40
2023-01-07T04:08:55.925Z,84.40
2023-01-07T04:11:24.849Z,84.20
2023-01-07T04:13:53.727Z,82.60
2023-01-07T04:16:22.516Z,82.80
2023-01-07T04:18:51.371Z,83.10
2023-01-07T04:21:20.288Z,85.20
2023-01-07T04:23:49.083Z,84.40
2023-01-07T04:26:17.977Z,82.50
2023-01-07T04:28:46.779Z,82.20
2023-01-07T04:31:15.673Z,83.00
2023-01-07T04:33:45.184Z,83.10
2023-01-07T04:36:14.801Z,82.50
2023-01-07T04:38:43.657Z,82.00
2023-01-07T04:41:12.631Z,83.10
2023-01-07T04:43:41.440Z,81.20
2023-01-07T04:46:10.193Z,82.90
2023-01-07T04:48:39.141Z,80.90
2023-01-07T04:51:08.081Z,80.80
2023-01-07T04:53:37.110Z,82.70
2023-01-07T04:56:07.413Z,78.60
2023-01-07T04:58:36.438Z,78.60
2023-01-07T05:01:05.401Z,78.50
2023-01-07T05:03:36.012Z,81.80
2023-01-07T05:06:06.352Z,78.90
2023-01-07T05:08:35.164Z,79.00
2023-01-07T05:11:05.864Z,81.70
2023-01-07T05:13:36.361Z,79.20
2023-01-07T05:16:05.729Z,79.10
2023-01-07T05:18:34.631Z,77.90
2023-01-07T05:21:03.464Z,80.80
2023-01-07T05:23:32.181Z,78.00
2023-01-07T05:26:00.978Z,79.70
2023-01-07T05:28:29.870Z,80.50
2023-01-07T05:30:58.730Z,77.90
2023-01-07T05:33:27.648Z,77.20
2023-01-07T05:35:56.589Z,77.00
2023-01-07T05:38:25.608Z,77.40
2023-01-07T05:40:54.544Z,79.80
2023-01-07T05:43:23.464Z,77.50
2023-01-07T05:45:52.439Z,76.90
2023-01-07T05:48:21.411Z,75.90
2023-01-07T05:50:50.196Z,76.60
2023-01-07T05:53:19.134Z,77.10
2023-01-07T05:55:48.081Z,76.70
2023-01-07T05:58:16.909Z,77.50
2023-01-07T06:00:46.061Z,79.00
2023-01-07T06:03:14.952Z,78.00
2023-01-07T06:05:43.820Z,76.30
2023-01-07T06:08:12.669Z,75.70
2023-01-07T06:10:41.993Z,76.10
2023-01-07T06:13:10.800Z,75.00
2023-01-07T06:15:39.793Z,77.10
2023-01-07T06:18:08.710Z,77.20
2023-01-07T06:20:37.504Z,74.90
2023-01-07T06:23:06.403Z,75.50
2023-01-07T06:25:35.209Z,76.70
2023-01-07T06:28:04.061Z,74.30
2023-01-07T06:30:32.894Z,75.20
2023-01-07T06:33:02.029Z,75.30
2023-01-07T06:35:30.927Z,77.30
2023-01-07T06:37:59.927Z,74.90
2023-01-07T06:40:29.332Z,77.00
2023-01-07T06:42:58.166Z,75.50
2023-01-07T06:45:26.996Z,75.50
2023-01-07T06:47:58.552Z,75.40
2023-01-07T06:50:27.590Z,74.60
2023-01-07T06:52:57.964Z,73.80
2023-01-07T06:55:26.854Z,75.60
2023-01-07T06:57:55.699Z,74.80
2023-01-07T07:00:24.481Z,73.10
2023-01-07T07:02:53.449Z,72.80
2023-01-07T07:05:22.372Z,74.90
2023-01-07T07:07:51.118Z,76.40
2023-01-07T07:10:20.099Z,75.40
2023-01-07T07:12:48.880Z,74.30
2023-01-07T07:15:17.713Z,73.10
2023-01-07T07:17:49.577Z,72.20
2023-01-07T07:20:18.587Z,73.00
2023-01-07T07:22:49.702Z,71.80
2023-01-07T07:25:18.655Z,72.90
2023-01-07T07:27:48.485Z,73.30
2023-01-07T07:30:17.666Z,72.80
2023-01-07T07:32:47.387Z,74.10
2023-01-07T07:35:16.212Z,74.90
2023-01-07T07:37:45.009Z,76.10
2023-01-07T07:40:14.145Z,72.40
2023-01-07T07:43:10.249Z,72.30
2023-01-07T07:45:31.838Z,71.80
2023-01-07T07:48:00.685Z,71.90
2023-01-07T07:50:29.627Z,73.80
2023-01-07T07:52:58.609Z,74.40
2023-01-07T07:55:27.467Z,71.50
2023-01-07T07:57:57.485Z,71.80
2023-01-07T08:00:26.644Z,71.80
2023-01-07T08:02:59.998Z,71.40
2023-01-07T08:05:29.989Z,72.30
2023-01-07T08:07:59.750Z,72.40
2023-01-07T08:10:29.819Z,72.60
2023-01-07T08:12:58.870Z,70.60
2023-01-07T08:15:27.921Z,70.80
2023-01-07T08:18:06.699Z,70.60
2023-01-07T08:20:37.171Z,70.90
2023-01-07T08:23:08.652Z,70.90
2023-01-07T08:25:37.750Z,71.40
2023-01-07T08:28:06.985Z,70.50
2023-01-07T08:30:35.907Z,71.20
2023-01-07T08:33:07.464Z,70.80
2023-01-07T08:35:36.816Z,71.30
2023-01-07T08:38:08.219Z,70.90
2023-01-07T08:40:38.175Z,71.50
2023-01-07T08:43:10.155Z,72.10
2023-01-07T08:45:39.005Z,72.90
2023-01-07T08:48:08.203Z,72.10
2023-01-07T08:50:37.049Z,71.40
2023-01-07T08:53:05.931Z,70.60
2023-01-07T08:55:35.069Z,70.60
2023-01-07T08:58:03.862Z,71.20
2023-01-07T09:00:32.791Z,71.10
2023-01-07T09:03:01.741Z,70.40
2023-01-07T09:05:30.729Z,71.00
2023-01-07T09:07:59.612Z,71.20
2023-01-07T09:10:28.464Z,71.90
2023-01-07T09:12:57.323Z,72.10
2023-01-07T09:15:26.400Z,72.00
2023-01-07T09:17:55.280Z,71.90
2023-01-07T09:20:24.209Z,71.60
2023-01-07T09:22:53.110Z,73.10
2023-01-07T09:25:21.874Z,71.40
2023-01-07T09:27:50.753Z,72.50
2023-01-07T09:30:19.719Z,71.90
2023-01-07T09:32:48.494Z,71.80
2023-01-07T09:35:17.386Z,71.70
2023-01-07T09:37:46.304Z,72.00
2023-01-07T09:40:24.885Z,72.50
2023-01-07T09:43:17.538Z,71.80
2023-01-07T09:45:53.592Z,72.70
2023-01-07T09:48:33.831Z,72.10
2023-01-07T09:51:13.787Z,72.20
2023-01-07T09:53:48.393Z,72.30
2023-01-07T09:56:27.915Z,72.70
2023-01-07T09:58:57.900Z,72.50
2023-01-07T10:01:36.164Z,72.80
2023-01-07T10:04:18.015Z,73.70
2023-01-07T10:06:48.662Z,74.10
2023-01-07T10:09:25.299Z,74.30
2023-01-07T10:12:14.480Z,74.60
2023-01-07T10:15:03.412Z,74.80
2023-01-07T10:17:55.885Z,75.60
2023-01-07T10:20:45.000Z,76.00
2023-01-07T10:23:20.902Z,76.30
2023-01-07T10:25:54.079Z,76.70
2023-01-07T10:28:44.834Z,77.10
2023-01-07T10:31:21.360Z,76.60
2023-01-07T10:33:51.300Z,76.70
2023-01-07T10:36:41.608Z,77.30
2023-01-07T10:39:31.351Z,77.80
2023-01-07T10:42:10.979Z,78.10
2023-01-07T10:45:19.086Z,78.80
2023-01-07T10:48:23.597Z,80.00
2023-01-07T10:51:25.231Z,80.70
2023-01-07T10:54:17.647Z,80.70
2023-01-07T10:56:52.021Z,81.70
2023-01-07T10:59:22.829Z,82.40
2023-01-07T11:01:56.573Z,82.90
2023-01-07T11:04:27.063Z,82.90
2023-01-07T11:06:58.303Z,82.50
2023-01-07T11:09:42.783Z,82.70
2023-01-07T11:12:50.844Z,82.50
2023-01-07T11:15:42.386Z,82.50
2023-01-07T11:18:25.325Z,83.30
2023-01-07T11:20:56.351Z,82.60
2023-01-07T11:23:38.615Z,83.20
2023-01-07T11:26:08.531Z,84.00
2023-01-07T11:28:41.145Z,84.70
2023-01-07T11:31:10.286Z,84.50
2023-01-07T11:34:01.268Z,84.60
2023-01-07T11:36:47.508Z,85.00
2023-01-07T11:39:27.535Z,85.30
2023-01-07T11:42:22.359Z,85.10
2023-01-07T11:44:51.384Z,85.40
2023-01-07T11:47:20.909Z,85.40
2023-01-07T11:49:49.837Z,86.30
2023-01-07T11:52:22.405Z,86.00
2023-01-07T11:54:53.359Z,85.60
2023-01-07T11:57:26.525Z,85.80
2023-01-07T12:00:16.623Z,86.60
2023-01-07T12:02:45.786Z,87.60
2023-01-07T12:05:22.575Z,87.70
2023-01-07T12:07:52.792Z,87.50
2023-01-07T12:10:41.273Z,86.90
2023-01-07T12:13:24.490Z,86.70
2023-01-07T12:15:55.266Z,87.00
2023-01-07T12:18:30.877Z,85.90
2023-01-07T12:21:01.575Z,87.00
2023-01-07T12:24:09.537Z,87.10
2023-01-07T12:26:54.763Z,87.60
2023-01-07T12:30:02.753Z,86.90
2023-01-07T12:32:54.754Z,87.50
2023-01-07T12:35:31.028Z,87.90
2023-01-07T12:38:20.521Z,87.90
2023-01-07T12:41:11.866Z,87.90
2023-01-07T12:43:49.513Z,87.80
2023-01-07T12:46:20.353Z,88.40
2023-01-07T12:49:03.340Z,88.20
2023-01-07T12:51:34.018Z,88.20
2023-01-07T12:54:12.389Z,88.30
2023-01-07T12:57:01.398Z,88.80
2023-01-07T12:59:46.692Z,88.00
2023-01-07T13:02:30.255Z,88.10
2023-01-07T13:05:11.605Z,88.20
2023-01-07T13:08:04.630Z,87.90
2023-01-07T13:10:46.439Z,87.70
2023-01-07T13:13:27.074Z,87.70
2023-01-07T13:15:56.025Z,87.80
2023-01-07T13:18:25.101Z,87.80
2023-01-07T13:21:10.459Z,88.10
2023-01-07T13:23:59.299Z,88.30
2023-01-07T13:26:51.716Z,88.80
2023-01-07T13:29:49.014Z,88.50
2023-01-07T13:32:49.671Z,88.70
2023-01-07T13:35:42.543Z,88.50
2023-01-07T13:38:32.829Z,88.20
2023-01-07T13:41:22.281Z,88.10
2023-01-07T13:44:03.334Z,87.90
2023-01-07T13:46:38.216Z,87.70
2023-01-07T13:49:08.340Z,87.50
2023-01-07T13:51:39.922Z,87.30
2023-01-07T13:54:11.982Z,87.30
2023-01-07T13:56:41.923Z,87.40
2023-01-07T13:59:32.149Z,87.50
2023-01-07T14:02:20.649Z,87.60
2023-01-07T14:04:53.088Z,87.60
2023-01-07T14:07:22.554Z,87.50
2023-01-07T14:09:56.212Z,87.50
2023-01-07T14:12:46.666Z,87.60
2023-01-07T14:15:21.259Z,87.60
2023-01-07T14:17:54.859Z,87.70
2023-01-07T14:20:48.349Z,87.70
2023-01-07T14:23:45.624Z,87.90
2023-01-07T14:26:35.783Z,87.80
2023-01-07T14:29:13.357Z,87.80
2023-01-07T14:31:42.754Z,87.90
2023-01-07T14:34:26.946Z,87.80
2023-01-07T14:37:17.301Z,87.90
2023-01-07T14:39:48.514Z,87.90
2023-01-07T14:42:42.128Z,87.90
2023-01-07T14:45:39.383Z,88.00
2023-01-07T14:48:12.901Z,88.10
2023-01-07T14:51:05.592Z,88.20
2023-01-07T14:54:09.187Z,88.30
2023-01-07T14:56:57.611Z,88.30
2023-01-07T14:59:35.171Z,88.10
2023-01-07T15:02:16.410Z,88.30
2023-01-07T15:05:21.169Z,88.40
2023-01-07T15:08:18.149Z,88.30
2023-01-07T15:11:09.863Z,88.40
2023-01-07T15:14:04.636Z,88.50
2023-01-07T15:16:37.208Z,88.60
2023-01-07T15:19:09.915Z,88.50
2023-01-07T15:22:08.124Z,88.50
2023-01-07T15:24:41.857Z,88.60
2023-01-07T15:27:21.774Z,89.20
2023-01-07T15:29:56.411Z,90.10
2023-01-07T15:32:45.456Z,90.00
2023-01-07T15:35:25.353Z,90.50
2023-01-07T15:37:54.709Z,90.10
2023-01-07T15:40:27.383Z,89.60
2023-01-07T15:42:59.935Z,89.20
2023-01-07T15:45:30.107Z,89.10
2023-01-07T15:48:14.970Z,88.90
2023-01-07T15:50:47.363Z,88.80
2023-01-07T15:53:17.432Z,88.80
2023-01-07T15:55:57.621Z,88.70
2023-01-07T15:58:34.042Z,88.60
2023-01-07T16:01:04.676Z,88.50
2023-01-07T16:03:38.426Z,88.50
2023-01-07T16:06:40.732Z,88.60
2023-01-07T16:09:25.453Z,88.80
2023-01-07T16:11:54.863Z,88.70
2023-01-07T16:14:26.555Z,88.40
2023-01-07T16:17:16.177Z,88.30
2023-01-07T16:19:45.370Z,88.20
2023-01-07T16:22:19.244Z,88.20
2023-01-07T16:24:52.226Z,88.10
2023-01-07T16:27:24.160Z,88.20
2023-01-07T16:29:57.158Z,88.00
2023-01-07T16:32:26.331Z,87.90
2023-01-07T16:35:02.608Z,87.70
2023-01-07T16:37:32.515Z,87.70
2023-01-07T16:40:02.063Z,87.60
2023-01-07T16:42:31.365Z,87.50
2023-01-07T16:45:02.427Z,87.70
2023-01-07T16:47:34.290Z,87.60
2023-01-07T16:50:21.333Z,87.70
2023-01-07T16:52:54.298Z,87.70
2023-01-07T16:55:42.631Z,87.90
2023-01-07T16:58:38.643Z,87.30
2023-01-07T17:01:21.860Z,87.50
2023-01-07T17:03:56.566Z,87.60
2023-01-07T17:06:31.516Z,87.50
2023-01-07T17:09:00.827Z,87.30
2023-01-07T17:11:37.470Z,86.90
2023-01-07T17:14:26.383Z,87.20
2023-01-07T17:17:16.366Z,87.00
2023-01-07T17:19:56.145Z,87.40
2023-01-07T17:22:43.456Z,87.20
2023-01-07T17:25:14.606Z,87.30
2023-01-07T17:27:48.682Z,87.30
2023-01-07T17:30:20.804Z,87.20
2023-01-07T17:32:54.303Z,88.10
2023-01-07T17:35:25.461Z,87.30
2023-01-07T17:37:55.700Z,87.00
2023-01-07T17:40:24.894Z,86.80
2023-01-07T17:43:13.659Z,87.10
2023-01-07T17:45:42.919Z,86.90
2023-01-07T17:48:15.233Z,87.00
2023-01-07T17:50:45.077Z,87.20
2023-01-07T17:53:24.291Z,87.30
2023-01-07T17:55:53.781Z,87.40
2023-01-07T17:58:39.575Z,87.40
2023-01-07T18:01:12.500Z,87.40
2023-01-07T18:03:41.577Z,87.60
2023-01-07T18:06:19.375Z,87.50
2023-01-07T18:08:50.109Z,87.40
2023-01-07T18:11:43.194Z,87.50
2023-01-07T18:14:14.962Z,87.70
2023-01-07T18:16:44.655Z,88.00
2023-01-07T18:19:16.418Z,88.10
2023-01-07T18:21:45.595Z,88.50
2023-01-07T18:24:23.094Z,88.50
2023-01-07T18:26:52.917Z,88.50
2023-01-07T18:29:22.831Z,88.70
2023-01-07T18:31:52.053Z,88.30
2023-01-07T18:34:21.300Z,88.70
2023-01-07T18:36:50.451Z,88.90
2023-01-07T18:39:21.866Z,88.90
2023-01-07T18:41:51.581Z,89.00
2023-01-07T18:44:23.129Z,89.10
2023-01-07T18:46:52.244Z,89.20
2023-01-07T18:49:21.377Z,89.10
2023-01-07T18:51:50.571Z,89.10
2023-01-07T18:54:19.790Z,89.20
2023-01-07T18:56:48.909Z,89.20
2023-01-07T18:59:18.148Z,89.20
2023-01-07T19:01:47.382Z,89.20
2023-01-07T19:04:16.583Z,89.20
2023-01-07T19:06:45.902Z,89.20
2023-01-07T19:09:15.049Z,89.40
2023-01-07T19:11:44.273Z,89.30
2023-01-07T19:14:13.547Z,89.50
2023-01-07T19:16:42.819Z,89.70
2023-01-07T19:19:12.058Z,89.70
2023-01-07T19:21:41.192Z,89.80
2023-01-07T19:24:10.438Z,89.90
2023-01-07T19:26:39.648Z,90.00
2023-01-07T19:29:08.806Z,90.20
2023-01-07T19:31:38.260Z,90.20
2023-01-07T19:34:07.925Z,90.30
2023-01-07T19:36:37.142Z,90.30
2023-01-07T19:39:06.615Z,90.50
2023-01-07T19:41:36.433Z,90.60
2023-01-07T19:44:05.622Z,90.50
2023-01-07T19:46:36.291Z,90.50
2023-01-07T19:49:06.973Z,90.40
2023-01-07T19:51:39.058Z,90.60
2023-01-07T19:54:09.887Z,90.80
2023-01-07T19:56:41.011Z,90.60
2023-01-07T19:59:10.147Z,90.80
2023-01-07T20:01:40.234Z,90.90
2023-01-07T20:04:10.474Z,90.80
2023-01-07T20:06:40.488Z,91.00
2023-01-07T20:09:12.406Z,91.00
2023-01-07T20:11:43.905Z,90.90
2023-01-07T20:14:14.662Z,90.90
2023-01-07T20:16:44.151Z,90.90
2023-01-07T20:19:14.090Z,90.80
2023-01-07T20:21:43.661Z,91.00
2023-01-07T20:24:14.818Z,91.20
2023-01-07T20:26:44.101Z,91.10
2023-01-07T20:29:13.365Z,91.20
2023-01-07T20:31:42.704Z,91.20
2023-01-07T20:34:12.243Z,91.00
2023-01-07T20:36:41.374Z,91.00
2023-01-07T20:39:10.625Z,90.90
2023-01-07T20:41:40.199Z,91.10
2023-01-07T20:44:10.703Z,91.10
2023-01-07T20:46:41.346Z,91.30
2023-01-07T20:49:11.550Z,91.40
2023-01-07T20:51:41.130Z,91.20
2023-01-07T20:54:10.371Z,91.10
2023-01-07T20:56:39.531Z,91.10
2023-01-07T20:59:08.906Z,91.10
2023-01-07T21:01:38.202Z,91.20
2023-01-07T21:04:07.558Z,91.30
2023-01-07T21:06:36.821Z,91.30
2023-01-07T21:09:06.234Z,91.10
2023-01-07T21:11:35.519Z,91.10
2023-01-07T21:14:04.815Z,91.30
2023-01-07T21:16:34.076Z,91.50
2023-01-07T21:19:03.206Z,91.90
2023-01-07T21:21:32.462Z,91.70
2023-01-07T21:24:01.610Z,91.40
2023-01-07T21:26:30.778Z,91.40
2023-01-07T21:29:00.504Z,91.70
2023-01-07T21:31:29.844Z,91.60
2023-01-07T21:33:59.767Z,91.50
2023-01-07T21:36:29.681Z,91.50
2023-01-07T21:39:00.630Z,91.50
2023-01-07T21:41:31.018Z,91.80
2023-01-07T21:44:00.213Z,91.90
2023-01-07T21:46:29.498Z,92.00
2023-01-07T21:48:59.051Z,91.90
2023-01-07T21:51:29.514Z,91.70
2023-01-07T21:54:00.190Z,92.10
2023-01-07T21:56:33.612Z,92.20
2023-01-07T21:59:06.803Z,92.30
2023-01-07T22:01:36.544Z,92.30
2023-01-07T22:04:06.191Z,92.40
2023-01-07T22:06:37.799Z,92.40
2023-01-07T22:09:12.923Z,92.60
2023-01-07T22:11:43.261Z,92.90
2023-01-07T22:14:16.405Z,92.80
2023-01-07T22:16:48.841Z,93.00
2023-01-07T22:19:18.226Z,93.00
2023-01-07T22:21:47.413Z,92.60
2023-01-07T22:24:16.531Z,92.90
2023-01-07T22:26:45.870Z,93.10
2023-01-07T22:29:16.135Z,92.50
2023-01-07T22:31:49.537Z,92.70
2023-01-07T22:34:18.785Z,92.50
2023-01-07T22:36:53.312Z,92.40
2023-01-07T22:39:29.604Z,92.70
2023-01-07T22:42:04.093Z,92.40
2023-01-07T22:44:40.837Z,92.90
2023-01-07T22:47:13.008Z,92.70
2023-01-07T22:49:43.511Z,92.60
2023-01-07T22:52:13.403Z,92.40
2023-01-07T22:54:42.535Z,92.30
2023-01-07T22:57:13.874Z,92.30
2023-01-07T22:59:43.713Z,92.30
2023-01-07T23:02:14.950Z,92.30
2023-01-07T23:04:44.099Z,92.30
2023-01-07T23:07:13.219Z,92.20
2023-01-07T23:09:43.231Z,92.40
2023-01-07T23:12:14.296Z,92.50
2023-01-07T23:14:43.558Z,92.60
2023-01-07T23:17:12.699Z,93.00
2023-01-07T23:19:41.790Z,92.70
2023-01-07T23:22:11.025Z,92.50
2023-01-07T23:24:40.178Z,92.60
2023-01-07T23:27:09.316Z,92.40
2023-01-07T23:29:40.258Z,92.30
2023-01-07T23:32:13.759Z,92.30
2023-01-07T23:34:43.320Z,92.50
2023-01-07T23:37:12.705Z,92.20
2023-01-07T23:39:41.827Z,92.60
2023-01-07T23:42:10.972Z,92.30
2023-01-07T23:44:40.234Z,92.40
2023-01-07T23:47:09.490Z,92.40
2023-01-07T23:49:39.463Z,92.70
2023-01-07T23:52:08.533Z,92.30
2023-01-07T23:54:37.656Z,92.70
2023-01-07T23:57:06.865Z,92.40
2023-01-07T23:59:36.447Z,92.30
